sensor_id;sensor_type;location;lat;lon;timestamp;P1;durP1;ratioP1;P2;durP2;ratioP2
15936;SDS011;9163;48.818;8.976;2023-03-01T00:00:07;26.90;;;16.37;;
15936;SDS011;9163;48.818;8.976;2023-03-01T00:02:35;26.03;;;16.30;;
15936;SDS011;9163;48.818;8.976;2023-03-01T00:05:07;27.37;;;16.07;;
15936;SDS011;9163;48.818;8.976;2023-03-01T00:07:34;25.37;;;15.90;;
15936;SDS011;9163;48.818;8.976;2023-03-01T00:10:02;24.83;;;15.60;;
15936;SDS011;9163;48.818;8.976;2023-03-01T00:12:31;24.53;;;15.13;;
15936;SDS011;9163;48.818;8.976;2023-03-01T00:14:58;23.73;;;16.27;;
15936;SDS011;9163;48.818;8.976;2023-03-01T00:17:26;26.00;;;15.40;;
15936;SDS011;9163;48.818;8.976;2023-03-01T00:19:54;24.73;;;14.93;;
15936;SDS011;9163;48.818;8.976;2023-03-01T00:22:23;26.40;;;16.23;;
15936;SDS011;9163;48.818;8.976;2023-03-01T00:24:50;23.37;;;14.90;;
15936;SDS011;9163;48.818;8.976;2023-03-01T00:27:17;24.70;;;15.33;;
15936;SDS011;9163;48.818;8.976;2023-03-01T00:29:45;24.93;;;15.13;;
15936;SDS011;9163;48.818;8.976;2023-03-01T00:32:12;24.67;;;15.43;;
15936;SDS011;9163;48.818;8.976;2023-03-01T00:34:40;26.63;;;15.90;;
15936;SDS011;9163;48.818;8.976;2023-03-01T00:37:07;24.33;;;15.30;;
15936;SDS011;9163;48.818;8.976;2023-03-01T00:39:39;24.57;;;14.93;;
15936;SDS011;9163;48.818;8.976;2023-03-01T00:42:07;27.40;;;15.70;;
15936;SDS011;9163;48.818;8.976;2023-03-01T00:44:34;25.90;;;16.10;;
15936;SDS011;9163;48.818;8.976;2023-03-01T00:47:02;25.27;;;16.40;;
15936;SDS011;9163;48.818;8.976;2023-03-01T00:49:29;24.30;;;15.73;;
15936;SDS011;9163;48.818;8.976;2023-03-01T00:51:56;27.97;;;16.03;;
15936;SDS011;9163;48.818;8.976;2023-03-01T00:54:27;27.80;;;16.83;;
15936;SDS011;9163;48.818;8.976;2023-03-01T00:56:55;24.87;;;15.97;;
15936;SDS011;9163;48.818;8.976;2023-03-01T00:59:23;26.47;;;16.57;;
15936;SDS011;9163;48.818;8.976;2023-03-01T01:01:50;24.87;;;15.93;;
15936;SDS011;9163;48.818;8.976;2023-03-01T01:04:17;24.53;;;14.77;;
15936;SDS011;9163;48.818;8.976;2023-03-01T01:06:45;23.77;;;15.80;;
15936;SDS011;9163;48.818;8.976;2023-03-01T01:09:14;24.70;;;16.37;;
15936;SDS011;9163;48.818;8.976;2023-03-01T01:11:43;27.07;;;16.57;;
15936;SDS011;9163;48.818;8.976;2023-03-01T01:14:12;28.53;;;16.10;;
15936;SDS011;9163;48.818;8.976;2023-03-01T01:16:41;26.60;;;16.63;;
15936;SDS011;9163;48.818;8.976;2023-03-01T01:19:09;26.93;;;16.43;;
15936;SDS011;9163;48.818;8.976;2023-03-01T01:21:37;25.40;;;16.33;;
15936;SDS011;9163;48.818;8.976;2023-03-01T01:24:05;24.87;;;16.03;;
15936;SDS011;9163;48.818;8.976;2023-03-01T01:26:33;26.70;;;15.90;;
15936;SDS011;9163;48.818;8.976;2023-03-01T01:29:02;28.20;;;16.33;;
15936;SDS011;9163;48.818;8.976;2023-03-01T01:31:32;27.13;;;16.83;;
15936;SDS011;9163;48.818;8.976;2023-03-01T01:34:00;23.80;;;15.50;;
15936;SDS011;9163;48.818;8.976;2023-03-01T01:36:30;28.30;;;16.63;;
15936;SDS011;9163;48.818;8.976;2023-03-01T01:38:58;25.97;;;16.73;;
15936;SDS011;9163;48.818;8.976;2023-03-01T01:41:27;27.77;;;16.53;;
15936;SDS011;9163;48.818;8.976;2023-03-01T01:46:54;25.77;;;16.23;;
15936;SDS011;9163;48.818;8.976;2023-03-01T01:49:25;26.10;;;16.53;;
15936;SDS011;9163;48.818;8.976;2023-03-01T01:52:00;28.07;;;16.97;;
15936;SDS011;9163;48.818;8.976;2023-03-01T01:54:35;26.80;;;17.17;;
15936;SDS011;9163;48.818;8.976;2023-03-01T01:57:07;27.20;;;16.27;;
15936;SDS011;9163;48.818;8.976;2023-03-01T01:59:38;26.50;;;17.23;;
15936;SDS011;9163;48.818;8.976;2023-03-01T02:02:11;26.63;;;16.90;;
15936;SDS011;9163;48.818;8.976;2023-03-01T02:04:39;27.03;;;17.30;;
15936;SDS011;9163;48.818;8.976;2023-03-01T02:07:07;28.77;;;17.10;;
15936;SDS011;9163;48.818;8.976;2023-03-01T02:09:39;27.50;;;16.70;;
15936;SDS011;9163;48.818;8.976;2023-03-01T02:12:08;26.33;;;16.87;;
15936;SDS011;9163;48.818;8.976;2023-03-01T02:14:36;26.50;;;16.97;;
15936;SDS011;9163;48.818;8.976;2023-03-01T02:17:03;26.10;;;16.47;;
15936;SDS011;9163;48.818;8.976;2023-03-01T02:19:34;25.33;;;16.80;;
15936;SDS011;9163;48.818;8.976;2023-03-01T02:22:13;26.20;;;17.10;;
15936;SDS011;9163;48.818;8.976;2023-03-01T02:24:50;28.33;;;17.20;;
15936;SDS011;9163;48.818;8.976;2023-03-01T02:27:31;27.97;;;18.03;;
15936;SDS011;9163;48.818;8.976;2023-03-01T02:30:06;29.03;;;16.77;;
15936;SDS011;9163;48.818;8.976;2023-03-01T02:32:38;29.70;;;17.97;;
15936;SDS011;9163;48.818;8.976;2023-03-01T02:35:07;28.13;;;17.60;;
15936;SDS011;9163;48.818;8.976;2023-03-01T02:37:36;25.40;;;17.47;;
15936;SDS011;9163;48.818;8.976;2023-03-01T02:40:06;27.97;;;17.63;;
15936;SDS011;9163;48.818;8.976;2023-03-01T02:42:39;25.73;;;15.97;;
15936;SDS011;9163;48.818;8.976;2023-03-01T02:45:13;28.17;;;17.53;;
15936;SDS011;9163;48.818;8.976;2023-03-01T02:47:41;29.27;;;17.63;;
15936;SDS011;9163;48.818;8.976;2023-03-01T02:50:11;24.87;;;16.43;;
15936;SDS011;9163;48.818;8.976;2023-03-01T02:52:52;29.37;;;17.33;;
15936;SDS011;9163;48.818;8.976;2023-03-01T02:55:26;28.43;;;17.57;;
15936;SDS011;9163;48.818;8.976;2023-03-01T02:57:54;34.10;;;18.37;;
15936;SDS011;9163;48.818;8.976;2023-03-01T03:00:24;28.37;;;17.83;;
15936;SDS011;9163;48.818;8.976;2023-03-01T03:02:58;30.20;;;17.73;;
15936;SDS011;9163;48.818;8.976;2023-03-01T03:05:28;28.97;;;17.53;;
15936;SDS011;9163;48.818;8.976;2023-03-01T03:07:57;27.50;;;17.17;;
15936;SDS011;9163;48.818;8.976;2023-03-01T03:10:26;30.13;;;17.70;;
15936;SDS011;9163;48.818;8.976;2023-03-01T03:12:56;27.97;;;16.67;;
15936;SDS011;9163;48.818;8.976;2023-03-01T03:15:26;27.70;;;17.73;;
15936;SDS011;9163;48.818;8.976;2023-03-01T03:17:54;28.10;;;17.33;;
15936;SDS011;9163;48.818;8.976;2023-03-01T03:20:23;28.37;;;16.73;;
15936;SDS011;9163;48.818;8.976;2023-03-01T03:22:52;26.67;;;17.33;;
15936;SDS011;9163;48.818;8.976;2023-03-01T03:25:21;27.13;;;17.17;;
15936;SDS011;9163;48.818;8.976;2023-03-01T03:27:49;28.03;;;17.63;;
15936;SDS011;9163;48.818;8.976;2023-03-01T03:30:22;25.33;;;17.30;;
15936;SDS011;9163;48.818;8.976;2023-03-01T03:32:52;28.77;;;17.83;;
15936;SDS011;9163;48.818;8.976;2023-03-01T03:35:21;27.67;;;18.57;;
15936;SDS011;9163;48.818;8.976;2023-03-01T03:37:50;28.97;;;16.60;;
15936;SDS011;9163;48.818;8.976;2023-03-01T03:40:33;25.13;;;16.63;;
15936;SDS011;9163;48.818;8.976;2023-03-01T03:43:02;25.97;;;17.23;;
15936;SDS011;9163;48.818;8.976;2023-03-01T03:45:31;29.40;;;17.80;;
15936;SDS011;9163;48.818;8.976;2023-03-01T03:48:00;27.13;;;17.30;;
15936;SDS011;9163;48.818;8.976;2023-03-01T03:50:29;29.67;;;18.27;;
15936;SDS011;9163;48.818;8.976;2023-03-01T03:52:56;27.30;;;17.50;;
15936;SDS011;9163;48.818;8.976;2023-03-01T03:55:23;25.77;;;16.67;;
15936;SDS011;9163;48.818;8.976;2023-03-01T03:57:56;26.60;;;17.73;;
15936;SDS011;9163;48.818;8.976;2023-03-01T04:00:27;27.20;;;17.53;;
15936;SDS011;9163;48.818;8.976;2023-03-01T04:02:55;25.37;;;16.73;;
15936;SDS011;9163;48.818;8.976;2023-03-01T04:05:23;31.07;;;17.60;;
15936;SDS011;9163;48.818;8.976;2023-03-01T04:07:51;27.97;;;17.50;;
15936;SDS011;9163;48.818;8.976;2023-03-01T04:10:33;26.23;;;17.70;;
15936;SDS011;9163;48.818;8.976;2023-03-01T04:13:02;28.30;;;17.73;;
15936;SDS011;9163;48.818;8.976;2023-03-01T04:15:30;27.53;;;16.83;;
15936;SDS011;9163;48.818;8.976;2023-03-01T04:17:58;25.70;;;16.90;;
15936;SDS011;9163;48.818;8.976;2023-03-01T04:20:28;28.47;;;17.53;;
15936;SDS011;9163;48.818;8.976;2023-03-01T04:22:57;27.77;;;17.77;;
15936;SDS011;9163;48.818;8.976;2023-03-01T04:25:36;26.67;;;17.23;;
15936;SDS011;9163;48.818;8.976;2023-03-01T04:28:04;27.00;;;17.63;;
15936;SDS011;9163;48.818;8.976;2023-03-01T04:30:32;25.80;;;16.77;;
15936;SDS011;9163;48.818;8.976;2023-03-01T04:33:01;29.33;;;17.10;;
15936;SDS011;9163;48.818;8.976;2023-03-01T04:35:31;28.03;;;17.27;;
15936;SDS011;9163;48.818;8.976;2023-03-01T04:37:59;26.53;;;16.77;;
15936;SDS011;9163;48.818;8.976;2023-03-01T04:40:27;28.60;;;17.80;;
15936;SDS011;9163;48.818;8.976;2023-03-01T04:42:54;27.53;;;17.37;;
15936;SDS011;9163;48.818;8.976;2023-03-01T04:45:21;25.20;;;17.13;;
15936;SDS011;9163;48.818;8.976;2023-03-01T04:47:49;30.57;;;18.20;;
15936;SDS011;9163;48.818;8.976;2023-03-01T04:50:18;29.50;;;17.73;;
15936;SDS011;9163;48.818;8.976;2023-03-01T04:52:48;27.60;;;16.47;;
15936;SDS011;9163;48.818;8.976;2023-03-01T04:55:16;27.33;;;17.80;;
15936;SDS011;9163;48.818;8.976;2023-03-01T04:57:43;26.70;;;17.47;;
15936;SDS011;9163;48.818;8.976;2023-03-01T05:00:11;28.13;;;17.93;;
15936;SDS011;9163;48.818;8.976;2023-03-01T05:02:47;29.73;;;18.07;;
15936;SDS011;9163;48.818;8.976;2023-03-01T05:05:19;27.33;;;17.83;;
15936;SDS011;9163;48.818;8.976;2023-03-01T05:07:52;29.43;;;17.87;;
15936;SDS011;9163;48.818;8.976;2023-03-01T05:10:22;26.93;;;17.43;;
15936;SDS011;9163;48.818;8.976;2023-03-01T05:12:50;28.40;;;17.63;;
15936;SDS011;9163;48.818;8.976;2023-03-01T05:15:18;29.57;;;17.40;;
15936;SDS011;9163;48.818;8.976;2023-03-01T05:17:47;29.90;;;18.07;;
15936;SDS011;9163;48.818;8.976;2023-03-01T05:20:14;29.33;;;18.40;;
15936;SDS011;9163;48.818;8.976;2023-03-01T05:22:42;30.63;;;18.77;;
15936;SDS011;9163;48.818;8.976;2023-03-01T05:25:10;35.27;;;18.67;;
15936;SDS011;9163;48.818;8.976;2023-03-01T05:27:39;27.47;;;17.10;;
15936;SDS011;9163;48.818;8.976;2023-03-01T05:30:07;28.17;;;17.90;;
15936;SDS011;9163;48.818;8.976;2023-03-01T05:32:40;27.30;;;17.80;;
15936;SDS011;9163;48.818;8.976;2023-03-01T05:35:10;27.00;;;17.73;;
15936;SDS011;9163;48.818;8.976;2023-03-01T05:37:40;27.00;;;17.13;;
15936;SDS011;9163;48.818;8.976;2023-03-01T05:40:13;28.53;;;17.93;;
15936;SDS011;9163;48.818;8.976;2023-03-01T05:42:43;26.97;;;17.87;;
15936;SDS011;9163;48.818;8.976;2023-03-01T05:45:11;29.43;;;18.63;;
15936;SDS011;9163;48.818;8.976;2023-03-01T05:47:39;28.93;;;18.70;;
15936;SDS011;9163;48.818;8.976;2023-03-01T05:50:10;29.27;;;18.37;;
15936;SDS011;9163;48.818;8.976;2023-03-01T05:52:39;29.40;;;17.37;;
15936;SDS011;9163;48.818;8.976;2023-03-01T05:55:06;29.13;;;18.10;;
15936;SDS011;9163;48.818;8.976;2023-03-01T05:57:36;30.27;;;18.47;;
15936;SDS011;9163;48.818;8.976;2023-03-01T06:00:04;28.50;;;17.87;;
15936;SDS011;9163;48.818;8.976;2023-03-01T06:02:36;28.47;;;18.23;;
15936;SDS011;9163;48.818;8.976;2023-03-01T06:05:04;27.97;;;17.60;;
15936;SDS011;9163;48.818;8.976;2023-03-01T06:07:32;27.13;;;17.97;;
15936;SDS011;9163;48.818;8.976;2023-03-01T06:09:59;27.80;;;17.93;;
15936;SDS011;9163;48.818;8.976;2023-03-01T06:12:27;30.13;;;18.33;;
15936;SDS011;9163;48.818;8.976;2023-03-01T06:14:58;29.90;;;19.13;;
15936;SDS011;9163;48.818;8.976;2023-03-01T06:17:26;29.80;;;18.67;;
15936;SDS011;9163;48.818;8.976;2023-03-01T06:19:55;28.53;;;18.03;;
15936;SDS011;9163;48.818;8.976;2023-03-01T06:22:22;27.20;;;18.07;;
15936;SDS011;9163;48.818;8.976;2023-03-01T06:24:49;30.60;;;18.10;;
15936;SDS011;9163;48.818;8.976;2023-03-01T06:27:16;28.20;;;16.63;;
15936;SDS011;9163;48.818;8.976;2023-03-01T06:29:44;28.70;;;17.67;;
15936;SDS011;9163;48.818;8.976;2023-03-01T06:32:12;27.80;;;18.73;;
15936;SDS011;9163;48.818;8.976;2023-03-01T06:34:39;28.57;;;17.73;;
15936;SDS011;9163;48.818;8.976;2023-03-01T06:37:07;31.57;;;19.10;;
15936;SDS011;9163;48.818;8.976;2023-03-01T06:39:34;31.03;;;18.43;;
15936;SDS011;9163;48.818;8.976;2023-03-01T06:42:02;29.27;;;17.80;;
15936;SDS011;9163;48.818;8.976;2023-03-01T06:44:29;27.73;;;17.63;;
15936;SDS011;9163;48.818;8.976;2023-03-01T06:46:56;28.60;;;18.57;;
15936;SDS011;9163;48.818;8.976;2023-03-01T06:49:26;30.07;;;18.60;;
15936;SDS011;9163;48.818;8.976;2023-03-01T06:51:53;35.93;;;19.83;;
15936;SDS011;9163;48.818;8.976;2023-03-01T06:54:20;28.60;;;17.97;;
15936;SDS011;9163;48.818;8.976;2023-03-01T06:56:48;27.87;;;17.93;;
15936;SDS011;9163;48.818;8.976;2023-03-01T06:59:16;29.43;;;18.27;;
15936;SDS011;9163;48.818;8.976;2023-03-01T07:01:44;27.07;;;17.50;;
15936;SDS011;9163;48.818;8.976;2023-03-01T07:04:12;30.67;;;18.87;;
15936;SDS011;9163;48.818;8.976;2023-03-01T07:06:41;29.27;;;18.37;;
15936;SDS011;9163;48.818;8.976;2023-03-01T07:09:09;28.77;;;17.53;;
15936;SDS011;9163;48.818;8.976;2023-03-01T07:11:36;26.37;;;17.60;;
15936;SDS011;9163;48.818;8.976;2023-03-01T07:14:03;28.47;;;18.00;;
15936;SDS011;9163;48.818;8.976;2023-03-01T07:16:31;29.03;;;17.73;;
15936;SDS011;9163;48.818;8.976;2023-03-01T07:18:58;30.50;;;18.40;;
15936;SDS011;9163;48.818;8.976;2023-03-01T07:21:25;30.33;;;18.00;;
15936;SDS011;9163;48.818;8.976;2023-03-01T07:23:54;28.50;;;17.97;;
15936;SDS011;9163;48.818;8.976;2023-03-01T07:26:21;29.33;;;18.37;;
15936;SDS011;9163;48.818;8.976;2023-03-01T07:28:48;28.03;;;17.47;;
15936;SDS011;9163;48.818;8.976;2023-03-01T07:31:15;29.13;;;17.50;;
15936;SDS011;9163;48.818;8.976;2023-03-01T07:33:42;26.80;;;17.57;;
15936;SDS011;9163;48.818;8.976;2023-03-01T07:36:10;28.07;;;17.83;;
15936;SDS011;9163;48.818;8.976;2023-03-01T07:38:37;27.30;;;17.30;;
15936;SDS011;9163;48.818;8.976;2023-03-01T07:41:05;27.77;;;17.53;;
15936;SDS011;9163;48.818;8.976;2023-03-01T07:43:32;28.87;;;18.57;;
15936;SDS011;9163;48.818;8.976;2023-03-01T07:46:00;26.30;;;16.70;;
15936;SDS011;9163;48.818;8.976;2023-03-01T07:48:28;27.23;;;17.33;;
15936;SDS011;9163;48.818;8.976;2023-03-01T07:50:57;25.23;;;17.27;;
15936;SDS011;9163;48.818;8.976;2023-03-01T07:53:25;28.17;;;16.97;;
15936;SDS011;9163;48.818;8.976;2023-03-01T07:56:03;25.23;;;16.90;;
15936;SDS011;9163;48.818;8.976;2023-03-01T07:58:33;29.17;;;17.23;;
15936;SDS011;9163;48.818;8.976;2023-03-01T08:01:01;29.97;;;17.53;;
15936;SDS011;9163;48.818;8.976;2023-03-01T08:03:29;28.97;;;17.97;;
15936;SDS011;9163;48.818;8.976;2023-03-01T08:05:58;27.53;;;17.03;;
15936;SDS011;9163;48.818;8.976;2023-03-01T08:08:26;29.17;;;16.90;;
15936;SDS011;9163;48.818;8.976;2023-03-01T08:10:56;29.23;;;17.80;;
15936;SDS011;9163;48.818;8.976;2023-03-01T08:13:23;30.27;;;17.67;;
15936;SDS011;9163;48.818;8.976;2023-03-01T08:15:52;31.03;;;17.40;;
15936;SDS011;9163;48.818;8.976;2023-03-01T08:18:19;32.70;;;17.40;;
15936;SDS011;9163;48.818;8.976;2023-03-01T08:20:50;26.53;;;16.57;;
15936;SDS011;9163;48.818;8.976;2023-03-01T08:23:17;24.63;;;16.80;;
15936;SDS011;9163;48.818;8.976;2023-03-01T08:25:44;28.03;;;17.27;;
15936;SDS011;9163;48.818;8.976;2023-03-01T08:28:11;32.87;;;18.23;;
15936;SDS011;9163;48.818;8.976;2023-03-01T08:30:38;29.63;;;17.53;;
15936;SDS011;9163;48.818;8.976;2023-03-01T08:33:07;32.17;;;18.10;;
15936;SDS011;9163;48.818;8.976;2023-03-01T08:35:34;33.87;;;17.67;;
15936;SDS011;9163;48.818;8.976;2023-03-01T08:38:01;27.53;;;17.60;;
15936;SDS011;9163;48.818;8.976;2023-03-01T08:40:28;27.70;;;16.83;;
15936;SDS011;9163;48.818;8.976;2023-03-01T08:42:57;28.43;;;17.37;;
15936;SDS011;9163;48.818;8.976;2023-03-01T08:45:24;28.57;;;17.50;;
15936;SDS011;9163;48.818;8.976;2023-03-01T08:47:52;28.60;;;18.07;;
15936;SDS011;9163;48.818;8.976;2023-03-01T08:50:20;26.23;;;17.23;;
15936;SDS011;9163;48.818;8.976;2023-03-01T08:52:49;28.97;;;17.07;;
15936;SDS011;9163;48.818;8.976;2023-03-01T08:55:17;24.77;;;17.13;;
15936;SDS011;9163;48.818;8.976;2023-03-01T08:57:44;24.47;;;17.20;;
15936;SDS011;9163;48.818;8.976;2023-03-01T09:00:11;25.07;;;17.77;;
15936;SDS011;9163;48.818;8.976;2023-03-01T09:02:40;28.63;;;17.07;;
15936;SDS011;9163;48.818;8.976;2023-03-01T09:05:08;23.50;;;17.27;;
15936;SDS011;9163;48.818;8.976;2023-03-01T09:07:37;25.07;;;16.83;;
15936;SDS011;9163;48.818;8.976;2023-03-01T09:10:04;24.50;;;16.90;;
15936;SDS011;9163;48.818;8.976;2023-03-01T09:12:32;26.33;;;16.83;;
15936;SDS011;9163;48.818;8.976;2023-03-01T09:14:59;26.23;;;17.13;;
15936;SDS011;9163;48.818;8.976;2023-03-01T09:17:27;28.50;;;17.80;;
15936;SDS011;9163;48.818;8.976;2023-03-01T09:19:54;29.73;;;17.77;;
15936;SDS011;9163;48.818;8.976;2023-03-01T09:22:21;27.90;;;17.70;;
15936;SDS011;9163;48.818;8.976;2023-03-01T09:24:50;28.07;;;16.53;;
15936;SDS011;9163;48.818;8.976;2023-03-01T09:27:17;30.70;;;17.80;;
15936;SDS011;9163;48.818;8.976;2023-03-01T09:29:46;28.27;;;17.50;;
15936;SDS011;9163;48.818;8.976;2023-03-01T09:32:15;26.07;;;17.23;;
15936;SDS011;9163;48.818;8.976;2023-03-01T09:34:42;23.43;;;17.17;;
15936;SDS011;9163;48.818;8.976;2023-03-01T09:37:30;28.83;;;17.93;;
15936;SDS011;9163;48.818;8.976;2023-03-01T09:39:59;24.20;;;16.37;;
15936;SDS011;9163;48.818;8.976;2023-03-01T09:42:27;22.23;;;16.10;;
15936;SDS011;9163;48.818;8.976;2023-03-01T09:44:57;22.37;;;16.77;;
15936;SDS011;9163;48.818;8.976;2023-03-01T09:47:29;21.90;;;16.50;;
15936;SDS011;9163;48.818;8.976;2023-03-01T09:50:01;25.80;;;16.80;;
15936;SDS011;9163;48.818;8.976;2023-03-01T09:52:33;20.77;;;16.17;;
15936;SDS011;9163;48.818;8.976;2023-03-01T09:55:09;26.03;;;17.00;;
15936;SDS011;9163;48.818;8.976;2023-03-01T09:57:41;24.83;;;17.23;;
15936;SDS011;9163;48.818;8.976;2023-03-01T10:00:20;22.37;;;16.33;;
15936;SDS011;9163;48.818;8.976;2023-03-01T10:03:02;22.00;;;16.73;;
15936;SDS011;9163;48.818;8.976;2023-03-01T10:05:48;23.40;;;16.43;;
15936;SDS011;9163;48.818;8.976;2023-03-01T10:08:29;22.87;;;17.17;;
15936;SDS011;9163;48.818;8.976;2023-03-01T10:11:19;22.70;;;16.70;;
15936;SDS011;9163;48.818;8.976;2023-03-01T10:13:58;19.90;;;15.47;;
15936;SDS011;9163;48.818;8.976;2023-03-01T10:16:38;20.50;;;16.43;;
15936;SDS011;9163;48.818;8.976;2023-03-01T10:19:11;23.50;;;17.17;;
15936;SDS011;9163;48.818;8.976;2023-03-01T10:21:44;21.43;;;16.33;;
15936;SDS011;9163;48.818;8.976;2023-03-01T10:24:13;19.37;;;15.47;;
15936;SDS011;9163;48.818;8.976;2023-03-01T10:26:48;20.93;;;16.20;;
15936;SDS011;9163;48.818;8.976;2023-03-01T10:29:22;19.33;;;15.60;;
15936;SDS011;9163;48.818;8.976;2023-03-01T10:31:52;20.80;;;16.00;;
15936;SDS011;9163;48.818;8.976;2023-03-01T10:34:26;20.30;;;16.13;;
15936;SDS011;9163;48.818;8.976;2023-03-01T10:36:55;19.50;;;15.80;;
15936;SDS011;9163;48.818;8.976;2023-03-01T10:39:24;19.83;;;16.10;;
15936;SDS011;9163;48.818;8.976;2023-03-01T10:41:58;21.90;;;16.07;;
15936;SDS011;9163;48.818;8.976;2023-03-01T10:44:40;20.03;;;16.10;;
15936;SDS011;9163;48.818;8.976;2023-03-01T10:47:16;20.73;;;16.23;;
15936;SDS011;9163;48.818;8.976;2023-03-01T10:49:51;19.57;;;15.30;;
15936;SDS011;9163;48.818;8.976;2023-03-01T10:52:20;18.87;;;15.40;;
15936;SDS011;9163;48.818;8.976;2023-03-01T10:54:53;21.10;;;16.30;;
15936;SDS011;9163;48.818;8.976;2023-03-01T11:00:17;18.07;;;15.90;;
15936;SDS011;9163;48.818;8.976;2023-03-01T11:02:48;21.47;;;16.33;;
15936;SDS011;9163;48.818;8.976;2023-03-01T11:05:19;21.35;;;16.80;;
15936;SDS011;9163;48.818;8.976;2023-03-01T11:07:51;18.27;;;16.05;;
15936;SDS011;9163;48.818;8.976;2023-03-01T11:10:20;18.77;;;16.48;;
15936;SDS011;9163;48.818;8.976;2023-03-01T11:12:51;18.90;;;16.08;;
15936;SDS011;9163;48.818;8.976;2023-03-01T11:15:20;18.80;;;16.75;;
15936;SDS011;9163;48.818;8.976;2023-03-01T11:17:52;18.20;;;16.33;;
15936;SDS011;9163;48.818;8.976;2023-03-01T11:20:24;17.42;;;15.73;;
15936;SDS011;9163;48.818;8.976;2023-03-01T11:22:57;17.58;;;15.98;;
15936;SDS011;9163;48.818;8.976;2023-03-01T11:25:28;17.63;;;15.93;;
15936;SDS011;9163;48.818;8.976;2023-03-01T11:28:02;17.77;;;16.08;;
15936;SDS011;9163;48.818;8.976;2023-03-01T11:30:32;17.83;;;16.02;;
15936;SDS011;9163;48.818;8.976;2023-03-01T11:33:08;17.17;;;15.57;;
15936;SDS011;9163;48.818;8.976;2023-03-01T11:35:41;17.42;;;15.73;;
15936;SDS011;9163;48.818;8.976;2023-03-01T11:38:18;17.67;;;15.93;;
15936;SDS011;9163;48.818;8.976;2023-03-01T11:40:49;17.48;;;15.75;;
15936;SDS011;9163;48.818;8.976;2023-03-01T11:43:28;16.75;;;14.98;;
15936;SDS011;9163;48.818;8.976;2023-03-01T11:46:11;17.65;;;15.85;;
15936;SDS011;9163;48.818;8.976;2023-03-01T11:49:04;16.90;;;15.40;;
15936;SDS011;9163;48.818;8.976;2023-03-01T11:51:41;17.02;;;15.30;;
15936;SDS011;9163;48.818;8.976;2023-03-01T11:54:23;16.75;;;15.10;;
15936;SDS011;9163;48.818;8.976;2023-03-01T11:57:04;16.73;;;15.02;;
15936;SDS011;9163;48.818;8.976;2023-03-01T11:59:57;15.73;;;14.18;;
15936;SDS011;9163;48.818;8.976;2023-03-01T12:02:39;17.58;;;15.05;;
15936;SDS011;9163;48.818;8.976;2023-03-01T12:05:20;16.73;;;15.13;;
15936;SDS011;9163;48.818;8.976;2023-03-01T12:08:04;17.50;;;15.32;;
15936;SDS011;9163;48.818;8.976;2023-03-01T12:10:38;17.75;;;16.05;;
15936;SDS011;9163;48.818;8.976;2023-03-01T12:16:15;16.52;;;14.98;;
15936;SDS011;9163;48.818;8.976;2023-03-01T12:18:57;15.80;;;14.30;;
15936;SDS011;9163;48.818;8.976;2023-03-01T12:21:47;16.35;;;14.70;;
15936;SDS011;9163;48.818;8.976;2023-03-01T12:24:43;17.02;;;15.25;;
15936;SDS011;9163;48.818;8.976;2023-03-01T12:27:36;16.88;;;14.75;;
15936;SDS011;9163;48.818;8.976;2023-03-01T12:30:21;16.13;;;14.50;;
15936;SDS011;9163;48.818;8.976;2023-03-01T12:33:02;16.13;;;14.30;;
15936;SDS011;9163;48.818;8.976;2023-03-01T12:39:05;17.25;;;15.43;;
15936;SDS011;9163;48.818;8.976;2023-03-01T12:41:43;15.77;;;14.13;;
15936;SDS011;9163;48.818;8.976;2023-03-01T12:44:19;15.98;;;14.45;;
15936;SDS011;9163;48.818;8.976;2023-03-01T12:47:04;16.75;;;14.05;;
15936;SDS011;9163;48.818;8.976;2023-03-01T12:49:38;15.93;;;14.43;;
15936;SDS011;9163;48.818;8.976;2023-03-01T12:52:10;15.88;;;14.20;;
15936;SDS011;9163;48.818;8.976;2023-03-01T12:54:43;15.98;;;14.48;;
15936;SDS011;9163;48.818;8.976;2023-03-01T12:57:14;15.73;;;14.23;;
15936;SDS011;9163;48.818;8.976;2023-03-01T12:59:47;16.83;;;14.43;;
15936;SDS011;9163;48.818;8.976;2023-03-01T13:02:23;16.55;;;14.52;;
15936;SDS011;9163;48.818;8.976;2023-03-01T13:05:04;19.58;;;14.45;;
15936;SDS011;9163;48.818;8.976;2023-03-01T13:07:41;22.08;;;14.48;;
15936;SDS011;9163;48.818;8.976;2023-03-01T13:10:19;16.50;;;14.85;;
15936;SDS011;9163;48.818;8.976;2023-03-01T13:13:00;15.57;;;14.18;;
15936;SDS011;9163;48.818;8.976;2023-03-01T13:15:31;16.30;;;14.80;;
15936;SDS011;9163;48.818;8.976;2023-03-01T13:18:00;15.55;;;14.02;;
15936;SDS011;9163;48.818;8.976;2023-03-01T13:20:31;16.85;;;15.25;;
15936;SDS011;9163;48.818;8.976;2023-03-01T13:23:12;16.30;;;14.60;;
15936;SDS011;9163;48.818;8.976;2023-03-01T13:26:01;16.55;;;15.02;;
15936;SDS011;9163;48.818;8.976;2023-03-01T13:28:50;16.80;;;15.10;;
15936;SDS011;9163;48.818;8.976;2023-03-01T13:37:27;16.55;;;15.07;;
15936;SDS011;9163;48.818;8.976;2023-03-01T13:39:57;17.17;;;15.45;;
15936;SDS011;9163;48.818;8.976;2023-03-01T13:42:34;17.23;;;15.45;;
15936;SDS011;9163;48.818;8.976;2023-03-01T13:45:14;16.73;;;15.00;;
15936;SDS011;9163;48.818;8.976;2023-03-01T13:47:49;16.92;;;15.32;;
15936;SDS011;9163;48.818;8.976;2023-03-01T13:50:21;16.63;;;15.02;;
15936;SDS011;9163;48.818;8.976;2023-03-01T13:52:53;16.92;;;15.32;;
15936;SDS011;9163;48.818;8.976;2023-03-01T13:55:25;18.05;;;15.43;;
15936;SDS011;9163;48.818;8.976;2023-03-01T13:58:02;16.73;;;15.02;;
15936;SDS011;9163;48.818;8.976;2023-03-01T14:00:41;17.70;;;15.93;;
15936;SDS011;9163;48.818;8.976;2023-03-01T14:03:09;17.42;;;15.75;;
15936;SDS011;9163;48.818;8.976;2023-03-01T14:05:39;17.50;;;15.68;;
15936;SDS011;9163;48.818;8.976;2023-03-01T14:08:20;17.83;;;16.00;;
15936;SDS011;9163;48.818;8.976;2023-03-01T14:10:52;16.77;;;15.07;;
15936;SDS011;9163;48.818;8.976;2023-03-01T14:13:26;17.08;;;15.40;;
15936;SDS011;9163;48.818;8.976;2023-03-01T14:16:07;17.25;;;15.60;;
15936;SDS011;9163;48.818;8.976;2023-03-01T14:18:47;17.25;;;15.43;;
15936;SDS011;9163;48.818;8.976;2023-03-01T14:21:23;17.10;;;15.40;;
15936;SDS011;9163;48.818;8.976;2023-03-01T14:23:52;17.27;;;15.68;;
15936;SDS011;9163;48.818;8.976;2023-03-01T14:26:20;17.45;;;15.65;;
15936;SDS011;9163;48.818;8.976;2023-03-01T14:28:48;17.58;;;15.77;;
15936;SDS011;9163;48.818;8.976;2023-03-01T14:31:34;17.55;;;15.85;;
15936;SDS011;9163;48.818;8.976;2023-03-01T14:34:03;17.67;;;15.93;;
15936;SDS011;9163;48.818;8.976;2023-03-01T14:36:31;17.50;;;15.70;;
15936;SDS011;9163;48.818;8.976;2023-03-01T14:39:02;18.17;;;16.38;;
15936;SDS011;9163;48.818;8.976;2023-03-01T14:41:43;17.60;;;15.80;;
15936;SDS011;9163;48.818;8.976;2023-03-01T14:44:12;17.13;;;15.32;;
15936;SDS011;9163;48.818;8.976;2023-03-01T14:46:46;17.45;;;15.48;;
15936;SDS011;9163;48.818;8.976;2023-03-01T14:49:14;17.15;;;15.45;;
15936;SDS011;9163;48.818;8.976;2023-03-01T14:51:46;17.98;;;15.48;;
15936;SDS011;9163;48.818;8.976;2023-03-01T14:54:23;19.73;;;15.88;;
15936;SDS011;9163;48.818;8.976;2023-03-01T14:56:53;16.95;;;15.15;;
15936;SDS011;9163;48.818;8.976;2023-03-01T14:59:24;17.20;;;15.43;;
15936;SDS011;9163;48.818;8.976;2023-03-01T15:01:53;17.20;;;15.50;;
15936;SDS011;9163;48.818;8.976;2023-03-01T15:04:22;17.45;;;15.30;;
15936;SDS011;9163;48.818;8.976;2023-03-01T15:06:51;17.15;;;15.45;;
15936;SDS011;9163;48.818;8.976;2023-03-01T15:09:21;17.10;;;15.30;;
15936;SDS011;9163;48.818;8.976;2023-03-01T15:11:49;17.92;;;15.95;;
15936;SDS011;9163;48.818;8.976;2023-03-01T15:14:26;18.45;;;15.77;;